createdAt,value
2018-06-20T00:03:47.420Z,17.10
2018-06-20T00:09:16.939Z,17.10
2018-06-20T00:14:46.794Z,17.00
2018-06-20T00:20:16.386Z,16.90
2018-06-20T00:25:46.240Z,16.90
2018-06-20T00:31:16.150Z,16.80
2018-06-20T00:36:45.710Z,16.80
2018-06-20T00:42:15.518Z,16.70
2018-06-20T00:47:45.360Z,16.70
2018-06-20T00:53:15.444Z,16.60
2018-06-20T00:58:45.584Z,16.60
2018-06-20T01:04:16.331Z,16.50
2018-06-20T01:09:46.915Z,16.50
2018-06-20T01:15:16.644Z,16.40
2018-06-20T01:20:46.815Z,16.30
2018-06-20T01:26:17.081Z,16.30
2018-06-20T01:31:46.467Z,16.20
2018-06-20T01:37:15.700Z,16.20
2018-06-20T01:42:44.899Z,16.20
2018-06-20T01:48:14.103Z,16.10
2018-06-20T01:53:43.287Z,16.10
2018-06-20T01:59:12.513Z,16.00
2018-06-20T02:04:41.692Z,16.00
2018-06-20T02:10:10.884Z,16.00
2018-06-20T02:15:40.159Z,15.90
2018-06-20T02:21:09.327Z,15.90
2018-06-20T02:26:38.621Z,15.80
2018-06-20T02:32:09.374Z,15.70
2018-06-20T02:37:38.573Z,15.70
2018-06-20T02:43:08.250Z,15.70
2018-06-20T02:48:38.109Z,15.60
2018-06-20T02:54:07.740Z,15.50
2018-06-20T02:59:36.974Z,15.50
2018-06-20T03:05:06.758Z,15.40
2018-06-20T03:10:36.104Z,15.40
2018-06-20T03:16:05.561Z,15.30
2018-06-20T03:21:35.098Z,15.30
2018-06-20T03:27:04.449Z,15.30
2018-06-20T03:32:34.357Z,15.30
2018-06-20T03:38:03.833Z,15.30
2018-06-20T03:43:33.898Z,15.30
2018-06-20T03:49:03.802Z,15.30
2018-06-20T03:54:33.414Z,15.30
2018-06-20T04:00:02.668Z,15.40
2018-06-20T04:05:32.005Z,15.50
2018-06-20T04:11:01.269Z,15.60
2018-06-20T04:16:30.699Z,15.80
2018-06-20T04:22:00.094Z,15.90
2018-06-20T04:27:29.501Z,16.00
2018-06-20T04:32:59.567Z,16.20
2018-06-20T04:38:28.984Z,16.40
2018-06-20T04:43:58.400Z,16.60
2018-06-20T04:49:27.994Z,16.70
2018-06-20T04:54:57.436Z,17.00
2018-06-20T05:00:26.625Z,17.20
2018-06-20T05:05:56.112Z,17.40
2018-06-20T05:11:25.596Z,17.70
2018-06-20T05:16:55.234Z,17.90
2018-06-20T05:22:25.909Z,18.20
2018-06-20T05:27:55.370Z,18.40
2018-06-20T05:33:24.793Z,18.70
2018-06-20T05:38:54.249Z,18.90
2018-06-20T05:44:24.555Z,19.20
2018-06-20T05:49:54.570Z,19.50
2018-06-20T05:55:24.469Z,19.70
2018-06-20T06:00:53.951Z,19.90
2018-06-20T06:06:23.141Z,20.20
2018-06-20T06:11:52.346Z,20.40
2018-06-20T06:17:21.504Z,20.70
2018-06-20T06:22:50.906Z,20.90
2018-06-20T06:28:21.314Z,21.20
2018-06-20T06:33:50.973Z,21.40
2018-06-20T06:39:20.760Z,21.70
2018-06-20T06:44:50.525Z,21.90
2018-06-20T06:50:20.157Z,22.10
2018-06-20T06:55:50.022Z,22.30
2018-06-20T07:01:22.941Z,22.60
2018-06-20T07:06:52.356Z,22.80
2018-06-20T07:12:22.558Z,23.00
2018-06-20T07:17:52.080Z,23.10
2018-06-20T07:23:21.277Z,23.30
2018-06-20T07:28:50.649Z,23.30
2018-06-20T07:39:50.347Z,23.80
2018-06-20T07:45:19.718Z,24.00
2018-06-20T07:50:49.030Z,24.20
2018-06-20T07:56:18.505Z,24.30
2018-06-20T08:02:10.187Z,24.50
2018-06-20T08:07:44.561Z,24.70
2018-06-20T08:13:20.990Z,24.70
2018-06-20T08:18:55.902Z,24.70
2018-06-20T08:24:25.063Z,24.70
2018-06-20T08:29:55.252Z,24.80
2018-06-20T08:35:24.886Z,24.80
2018-06-20T08:40:54.537Z,25.00
2018-06-20T08:46:24.005Z,24.90
2018-06-20T08:51:53.550Z,25.00
2018-06-20T08:57:23.041Z,25.30
2018-06-20T09:02:52.248Z,25.40
2018-06-20T09:08:27.025Z,25.60
2018-06-20T09:14:01.411Z,25.80
2018-06-20T09:19:35.726Z,25.90
2018-06-20T09:25:04.993Z,26.10
2018-06-20T09:30:34.209Z,26.40
2018-06-20T09:36:03.418Z,26.70
2018-06-20T09:41:32.593Z,26.90
2018-06-20T09:47:01.784Z,26.50
2018-06-20T09:52:30.957Z,26.60
2018-06-20T09:58:00.204Z,26.40
2018-06-20T10:03:34.732Z,26.10
2018-06-20T10:09:10.065Z,26.50
2018-06-20T10:14:41.269Z,26.40
2018-06-20T10:20:20.763Z,26.40
2018-06-20T10:25:50.011Z,26.80
2018-06-20T10:31:20.978Z,26.60
2018-06-20T10:36:50.939Z,26.70
2018-06-20T10:42:20.489Z,27.10
2018-06-20T10:47:51.199Z,27.10
2018-06-20T10:53:21.199Z,26.90
2018-06-20T10:58:55.945Z,27.10
2018-06-20T11:04:30.447Z,27.20
2018-06-20T11:10:04.952Z,27.30
2018-06-20T11:15:34.461Z,27.60
2018-06-20T11:21:03.665Z,27.60
2018-06-20T11:26:32.880Z,27.60
2018-06-20T11:32:02.145Z,27.60
2018-06-20T11:37:31.356Z,27.70
2018-06-20T11:43:00.563Z,28.00
2018-06-20T11:48:29.776Z,28.10
2018-06-20T11:53:58.972Z,28.20
2018-06-20T11:59:33.548Z,28.30
2018-06-20T12:05:09.695Z,28.50
2018-06-20T12:10:46.587Z,28.60
2018-06-20T12:16:23.772Z,28.70
2018-06-20T12:21:58.343Z,28.60
2018-06-20T12:27:32.809Z,28.60
2018-06-20T12:33:07.273Z,28.70
2018-06-20T12:38:42.248Z,28.80
2018-06-20T12:44:17.953Z,28.50
2018-06-20T12:49:52.495Z,28.70
2018-06-20T12:55:22.641Z,28.70
2018-06-20T13:00:52.630Z,28.60
2018-06-20T13:06:22.472Z,28.30
2018-06-20T13:11:51.975Z,28.30
2018-06-20T13:17:21.801Z,28.20
2018-06-20T13:22:51.473Z,28.20
2018-06-20T13:28:21.213Z,28.10
2018-06-20T13:33:56.723Z,28.20
2018-06-20T13:39:31.353Z,28.20
2018-06-20T13:45:04.653Z,28.10
2018-06-20T13:50:34.415Z,28.10
2018-06-20T13:56:03.639Z,28.10
2018-06-20T14:01:32.799Z,28.00
2018-06-20T14:07:01.983Z,28.00
2018-06-20T14:12:31.327Z,28.00
2018-06-20T14:18:00.619Z,28.00
2018-06-20T14:23:29.799Z,28.10
2018-06-20T14:28:59.363Z,28.00
2018-06-20T14:34:33.881Z,28.00
2018-06-20T14:40:12.531Z,28.00
2018-06-20T14:46:49.559Z,28.00
2018-06-20T14:52:19.232Z,28.20
2018-06-20T14:57:49.006Z,28.40
2018-06-20T15:03:19.864Z,32.90
2018-06-20T15:08:49.985Z,36.10
2018-06-20T15:14:19.704Z,36.50
2018-06-20T15:19:49.430Z,37.50
2018-06-20T15:25:26.111Z,38.00
2018-06-20T15:32:02.350Z,34.50
2018-06-20T15:37:36.941Z,31.80
2018-06-20T15:43:06.136Z,30.40
2018-06-20T15:48:35.881Z,29.80
2018-06-20T15:54:06.027Z,29.20
2018-06-20T15:59:35.770Z,28.60
2018-06-20T16:05:11.551Z,28.10
2018-06-20T16:10:42.526Z,28.60
2018-06-20T16:16:15.551Z,28.30
2018-06-20T16:21:52.826Z,27.90
2018-06-20T16:27:27.709Z,27.40
2018-06-20T16:32:56.899Z,27.20
2018-06-20T16:38:26.096Z,27.10
2018-06-20T16:43:55.909Z,27.00
2018-06-20T16:49:25.086Z,26.90
2018-06-20T16:54:54.891Z,26.80
2018-06-20T17:00:24.405Z,26.70
2018-06-20T17:05:54.033Z,26.60
2018-06-20T17:11:24.238Z,26.60
2018-06-20T17:16:59.078Z,26.50
2018-06-20T17:22:33.520Z,26.50
2018-06-20T17:28:02.814Z,26.90
2018-06-20T17:33:31.972Z,26.60
2018-06-20T17:39:01.202Z,26.40
2018-06-20T17:44:30.394Z,26.20
2018-06-20T17:49:59.610Z,26.00
2018-06-20T17:55:28.807Z,25.90
2018-06-20T18:01:03.334Z,25.70
2018-06-20T18:06:37.962Z,25.60
2018-06-20T18:12:12.631Z,25.50
2018-06-20T18:17:44.280Z,25.40
2018-06-20T18:23:14.906Z,25.30
2018-06-20T18:28:45.495Z,25.30
2018-06-20T18:34:16.178Z,25.20
2018-06-20T18:39:51.322Z,25.10
2018-06-20T18:45:21.001Z,25.10
2018-06-20T18:56:20.966Z,24.90
2018-06-20T19:01:56.227Z,24.80
2018-06-20T19:07:30.973Z,24.60
2018-06-20T19:13:00.199Z,24.60
2018-06-20T19:18:29.843Z,24.50
2018-06-20T19:23:59.047Z,24.40
2018-06-20T19:29:28.252Z,24.20
2018-06-20T19:34:57.676Z,24.10
2018-06-20T19:40:26.948Z,23.90
2018-06-20T19:45:56.212Z,23.80
2018-06-20T19:51:25.433Z,23.70
2018-06-20T19:56:54.586Z,23.60
2018-06-20T20:02:24.943Z,23.50
2018-06-20T20:07:54.144Z,23.30
2018-06-20T20:13:23.350Z,23.20
2018-06-20T20:18:52.686Z,23.10
2018-06-20T20:24:21.959Z,22.90
2018-06-20T20:29:51.221Z,22.80
2018-06-20T20:35:20.608Z,22.70
2018-06-20T20:40:49.934Z,22.60
2018-06-20T20:46:20.058Z,22.40
2018-06-20T20:51:49.417Z,22.20
2018-06-20T20:57:18.739Z,22.10
2018-06-20T21:02:48.184Z,22.00
2018-06-20T21:08:17.658Z,21.80
2018-06-20T21:13:47.206Z,21.70
2018-06-20T21:19:16.598Z,21.50
2018-06-20T21:24:46.172Z,21.40
2018-06-20T21:30:15.848Z,21.30
2018-06-20T21:35:45.424Z,21.20
2018-06-20T21:41:15.137Z,21.10
2018-06-20T21:46:45.023Z,21.00
2018-06-20T21:52:14.815Z,20.90
2018-06-20T21:57:44.361Z,20.70
2018-06-20T22:03:13.973Z,20.60
2018-06-20T22:08:44.291Z,20.50
2018-06-20T22:14:14.351Z,20.40
2018-06-20T22:19:43.725Z,20.30
2018-06-20T22:25:13.602Z,20.20
2018-06-20T22:30:44.232Z,20.10
2018-06-20T22:36:14.177Z,20.00
2018-06-20T22:41:44.011Z,19.90
2018-06-20T22:47:13.907Z,19.80
2018-06-20T22:52:44.021Z,19.70
2018-06-20T22:58:14.619Z,19.60
2018-06-20T23:03:44.625Z,19.50
2018-06-20T23:09:15.156Z,19.40
2018-06-20T23:14:44.971Z,19.40
2018-06-20T23:20:14.637Z,19.30
2018-06-20T23:25:44.558Z,19.20
2018-06-20T23:31:14.383Z,19.10
2018-06-20T23:36:44.590Z,19.00
2018-06-20T23:42:14.755Z,19.00
2018-06-20T23:47:44.747Z,18.90
2018-06-20T23:53:14.676Z,18.80
2018-06-20T23:58:44.523Z,18.80
